Time;durP1;ratioP1;P1;durP2;ratioP2;P2;SDS_P1;SDS_P2;PMS_P1;PMS_P2;Temp;Humidity;BMP_temperature;BMP_pressure;BME280_temperature;BME280_humidity;BME280_pressure;Samples;Min_cycle;Max_cycle;Signal;HPM_P1;HPM_P2
2021/08/28 00:01:51;;;;;;;4.53;3.63;;;15.40;99.90;;;;;;5125430;27;20838;-45
2021/08/28 00:04:17;;;;;;;3.47;3.10;;;15.40;99.90;;;;;;5112073;27;20204;-49
2021/08/28 00:06:44;;;;;;;5.93;3.50;;;15.40;99.90;;;;;;5123828;27;20200;-46
2021/08/28 00:09:11;;;;;;;4.53;3.40;;;15.40;99.90;;;;;;5126967;27;20258;-46
2021/08/28 00:11:37;;;;;;;3.30;2.93;;;15.40;99.90;;;;;;5114833;27;20216;-46
2021/08/28 00:14:04;;;;;;;3.07;2.87;;;15.40;99.90;;;;;;5138320;27;20737;-45
2021/08/28 00:16:31;;;;;;;3.40;3.10;;;15.40;99.90;;;;;;5130514;27;20201;-47
2021/08/28 00:18:59;;;;;;;4.47;3.43;;;15.40;99.90;;;;;;5126958;27;20196;-48
2021/08/28 00:21:25;;;;;;;3.73;3.27;;;15.40;99.90;;;;;;5110029;27;20584;-46
2021/08/28 00:23:52;;;;;;;2.70;2.47;;;15.40;99.90;;;;;;5124624;27;20181;-49
2021/08/28 00:26:18;;;;;;;3.57;3.27;;;15.40;99.90;;;;;;5108303;27;20666;-45
2021/08/28 00:28:45;;;;;;;2.93;2.73;;;15.40;99.90;;;;;;5107727;27;20224;-47
2021/08/28 00:31:12;;;;;;;4.60;3.10;;;15.30;99.90;;;;;;5127189;27;20208;-46
2021/08/28 00:33:38;;;;;;;3.50;2.93;;;15.30;99.90;;;;;;5112228;27;20795;-45
2021/08/28 00:36:06;;;;;;;2.80;2.60;;;15.40;99.90;;;;;;5112861;27;20209;-45
2021/08/28 00:38:33;;;;;;;3.00;2.30;;;15.30;99.90;;;;;;5116018;27;20207;-48
2021/08/28 00:41:00;;;;;;;3.00;2.40;;;15.20;99.90;;;;;;5121640;27;20195;-45
2021/08/28 00:43:27;;;;;;;2.97;2.23;;;15.30;99.90;;;;;;5117508;27;20560;-49
2021/08/28 00:45:54;;;;;;;3.63;2.60;;;15.30;99.90;;;;;;5143734;27;20200;-47
2021/08/28 00:48:21;;;;;;;3.30;2.30;;;15.20;99.90;;;;;;5132537;27;20209;-46
2021/08/28 00:50:47;;;;;;;2.13;1.93;;;15.20;99.90;;;;;;5090633;27;20261;-48
2021/08/28 00:53:17;;;;;;;2.67;2.10;;;15.20;99.90;;;;;;5125244;27;20220;-48
2021/08/28 00:55:45;;;;;;;2.20;2.00;;;15.20;99.90;;;;;;5121221;27;20205;-45
2021/08/28 00:58:12;;;;;;;2.30;1.90;;;15.20;99.90;;;;;;5123854;27;20211;-45
2021/08/28 01:00:41;;;;;;;5.80;1.90;;;15.10;99.90;;;;;;5096927;27;21000;-47
2021/08/28 01:03:09;;;;;;;1.93;1.83;;;15.10;99.90;;;;;;5116362;27;20220;-46
2021/08/28 01:05:48;;;;;;;2.10;2.00;;;15.10;99.90;;;;;;5113940;27;20216;-46
2021/08/28 01:08:20;;;;;;;2.33;1.97;;;15.20;99.90;;;;;;5123971;27;21079;-45
2021/08/28 01:11:22;;;;;;;2.30;2.00;;;15.20;99.90;;;;;;5118689;27;20678;-49
2021/08/28 01:13:58;;;;;;;2.00;1.90;;;15.20;99.90;;;;;;5126989;27;20278;-46
2021/08/28 01:16:27;;;;;;;1.90;1.80;;;15.20;99.90;;;;;;5130612;27;20695;-47
2021/08/28 01:18:57;;;;;;;3.27;2.10;;;15.20;99.90;;;;;;5124697;27;20207;-46
2021/08/28 01:21:29;;;;;;;2.33;2.13;;;15.10;99.90;;;;;;5107717;27;20236;-48
2021/08/28 01:24:17;;;;;;;2.40;2.20;;;15.20;99.90;;;;;;5124476;27;20207;-45
2021/08/28 01:27:07;;;;;;;2.33;2.00;;;15.20;99.90;;;;;;5122914;27;20354;-45
2021/08/28 01:29:37;;;;;;;1.90;1.80;;;15.20;99.90;;;;;;5121859;27;20700;-45
2021/08/28 01:32:04;;;;;;;2.10;1.90;;;15.20;99.90;;;;;;5113463;27;20266;-45
2021/08/28 01:34:32;;;;;;;3.80;1.77;;;15.20;99.90;;;;;;5124111;27;20196;-49
2021/08/28 01:37:00;;;;;;;2.10;2.00;;;15.20;99.90;;;;;;5098150;27;20205;-45
2021/08/28 01:39:46;;;;;;;2.40;2.13;;;15.20;99.90;;;;;;5114943;27;20224;-45
2021/08/28 01:42:21;;;;;;;2.23;1.90;;;15.20;99.90;;;;;;5121668;27;20313;-49
2021/08/28 01:44:52;;;;;;;2.20;2.00;;;15.20;99.90;;;;;;5121618;27;20185;-47
2021/08/28 01:47:21;;;;;;;2.87;2.40;;;15.20;99.90;;;;;;5102447;27;20201;-46
2021/08/28 01:49:50;;;;;;;6.00;2.60;;;15.20;99.90;;;;;;5109712;27;20231;-45
2021/08/28 01:52:17;;;;;;;5.50;2.57;;;15.20;99.90;;;;;;5120006;27;20570;-49
2021/08/28 01:54:46;;;;;;;1.93;1.83;;;15.20;99.90;;;;;;5111549;27;20200;-46
2021/08/28 01:57:14;;;;;;;2.40;2.20;;;15.20;99.90;;;;;;5118856;27;20219;-48
2021/08/28 01:59:52;;;;;;;4.03;2.23;;;15.20;99.90;;;;;;5121675;27;20219;-47
2021/08/28 02:02:40;;;;;;;2.40;2.20;;;15.20;99.90;;;;;;5105497;27;20256;-45
2021/08/28 02:05:08;;;;;;;2.73;2.27;;;15.20;99.90;;;;;;5115553;27;20230;-48
2021/08/28 02:07:42;;;;;;;2.57;2.10;;;15.20;99.90;;;;;;5105124;27;20208;-46
2021/08/28 02:10:13;;;;;;;2.50;2.23;;;15.20;99.90;;;;;;5109288;27;20693;-45
2021/08/28 02:12:43;;;;;;;4.27;1.90;;;15.20;99.90;;;;;;5118561;27;20215;-45
2021/08/28 02:15:21;;;;;;;2.10;1.90;;;15.10;99.90;;;;;;5123495;27;20196;-48
2021/08/28 02:17:55;;;;;;;4.03;2.10;;;15.10;99.90;;;;;;5105699;27;20208;-45
2021/08/28 02:20:24;;;;;;;2.40;2.20;;;15.10;99.90;;;;;;5121878;27;20300;-47
2021/08/28 02:23:04;;;;;;;2.10;2.00;;;15.00;99.90;;;;;;5122539;27;20569;-46
2021/08/28 02:26:06;;;;;;;2.37;2.20;;;15.00;99.90;;;;;;5122754;27;20200;-45
2021/08/28 02:28:38;;;;;;;2.10;1.90;;;15.00;99.90;;;;;;5111018;27;20224;-49
2021/08/28 02:31:10;;;;;;;1.90;1.80;;;15.00;99.90;;;;;;5103045;28;20201;-47
2021/08/28 02:33:44;;;;;;;2.23;2.10;;;15.10;99.90;;;;;;5116759;27;20192;-46
2021/08/28 02:36:13;;;;;;;2.73;2.00;;;15.10;99.90;;;;;;5125049;27;20207;-47
2021/08/28 02:38:41;;;;;;;3.50;2.67;;;15.00;99.90;;;;;;5119487;27;20905;-45
2021/08/28 02:41:08;;;;;;;2.93;2.73;;;15.00;99.90;;;;;;5108902;27;20292;-45
2021/08/28 02:43:36;;;;;;;3.60;2.13;;;15.00;99.90;;;;;;5120123;27;20202;-46
2021/08/28 02:46:04;;;;;;;3.80;2.40;;;15.00;99.90;;;;;;5123200;27;20575;-45
2021/08/28 02:48:37;;;;;;;2.73;2.53;;;15.00;99.90;;;;;;5114397;27;20213;-50
2021/08/28 02:51:08;;;;;;;3.93;2.87;;;15.00;99.90;;;;;;5101023;27;20197;-46
2021/08/28 02:53:38;;;;;;;2.60;2.40;;;15.10;99.90;;;;;;5105932;28;20416;-46
2021/08/28 02:56:05;;;;;;;2.93;2.27;;;15.10;99.90;;;;;;5107724;27;20366;-49
2021/08/28 02:58:33;;;;;;;2.97;2.07;;;15.10;99.90;;;;;;5111233;27;20296;-49
2021/08/28 03:01:02;;;;;;;2.80;2.60;;;15.10;99.90;;;;;;5122634;28;20238;-51
2021/08/28 03:03:29;;;;;;;3.10;2.90;;;15.00;99.90;;;;;;5104626;27;20185;-51
2021/08/28 03:06:00;;;;;;;2.70;2.50;;;15.00;99.90;;;;;;5129539;27;20209;-47
2021/08/28 03:08:33;;;;;;;2.93;2.73;;;15.00;99.90;;;;;;5119310;28;20216;-47
2021/08/28 03:11:01;;;;;;;4.60;2.30;;;14.90;99.90;;;;;;5103162;27;20209;-50
2021/08/28 03:13:29;;;;;;;4.13;2.57;;;14.90;99.90;;;;;;5102174;27;20262;-49
2021/08/28 03:15:57;;;;;;;3.53;2.43;;;14.90;99.90;;;;;;5116407;27;20200;-49
2021/08/28 03:18:25;;;;;;;3.90;2.53;;;14.90;99.90;;;;;;5120374;28;20201;-48
2021/08/28 03:20:55;;;;;;;3.03;2.50;;;14.90;99.90;;;;;;5106375;27;20566;-47
2021/08/28 03:23:25;;;;;;;2.50;2.40;;;14.90;99.90;;;;;;5115460;27;20241;-51
2021/08/28 03:25:56;;;;;;;3.23;3.03;;;14.90;99.90;;;;;;5124536;27;20206;-46
2021/08/28 03:28:25;;;;;;;2.50;2.30;;;14.90;99.90;;;;;;5110771;27;20196;-49
2021/08/28 03:30:52;;;;;;;2.80;2.60;;;14.90;99.90;;;;;;5126549;27;20199;-47
2021/08/28 03:33:21;;;;;;;2.57;2.30;;;15.00;99.90;;;;;;5128095;27;20602;-49
2021/08/28 03:35:56;;;;;;;2.13;2.03;;;14.90;99.90;;;;;;5134007;27;20632;-49
2021/08/28 03:38:25;;;;;;;2.87;2.67;;;14.90;99.90;;;;;;5123597;27;20208;-49
2021/08/28 03:40:56;;;;;;;2.40;2.20;;;14.90;99.90;;;;;;5126003;27;20681;-48
2021/08/28 03:43:22;;;;;;;2.97;2.17;;;14.90;99.90;;;;;;5107878;27;20697;-51
2021/08/28 03:45:50;;;;;;;2.20;2.00;;;14.90;99.90;;;;;;5124459;27;20276;-50
2021/08/28 03:48:20;;;;;;;2.53;2.33;;;14.90;99.90;;;;;;5120028;27;20287;-52
2021/08/28 03:50:47;;;;;;;3.60;2.30;;;14.90;99.90;;;;;;5117754;27;20265;-47
2021/08/28 03:53:13;;;;;;;1.97;1.87;;;14.80;99.90;;;;;;5127397;27;20217;-47
2021/08/28 03:55:41;;;;;;;2.07;1.93;;;14.80;99.90;;;;;;5119059;27;20192;-48
2021/08/28 03:58:08;;;;;;;1.70;1.60;;;14.80;99.90;;;;;;5126031;27;20288;-45
2021/08/28 04:00:35;;;;;;;2.37;1.93;;;14.80;99.90;;;;;;5101719;27;20200;-46
2021/08/28 04:03:03;;;;;;;2.37;1.73;;;14.90;99.90;;;;;;5113055;27;20651;-47
2021/08/28 04:05:31;;;;;;;2.40;2.20;;;14.80;99.90;;;;;;5112345;27;20568;-50
2021/08/28 04:07:57;;;;;;;1.90;1.60;;;14.90;99.90;;;;;;5106207;27;20288;-49
2021/08/28 04:10:27;;;;;;;1.90;1.43;;;14.90;99.90;;;;;;5118411;27;20216;-51
2021/08/28 04:12:55;;;;;;;2.53;1.80;;;14.80;99.90;;;;;;5114978;27;20710;-46
2021/08/28 04:15:22;;;;;;;2.67;1.63;;;14.80;99.90;;;;;;5111843;27;20212;-48
2021/08/28 04:18:07;;;;;;;1.73;1.63;;;14.80;99.90;;;;;;5108951;27;20212;-46
2021/08/28 04:20:35;;;;;;;1.80;1.70;;;14.80;99.90;;;;;;5096564;27;20387;-45
2021/08/28 04:23:11;;;;;;;3.50;1.87;;;14.80;99.90;;;;;;5112715;27;20228;-45
2021/08/28 04:25:56;;;;;;;2.50;2.13;;;14.80;99.90;;;;;;5138261;27;20214;-46
2021/08/28 04:28:27;;;;;;;2.10;1.83;;;14.80;99.90;;;;;;5114523;27;20183;-47
2021/08/28 04:30:56;;;;;;;2.33;2.10;;;14.80;99.90;;;;;;5116087;27;20227;-48
2021/08/28 04:33:23;;;;;;;2.90;2.70;;;14.80;99.90;;;;;;5119302;27;20226;-49
2021/08/28 04:35:50;;;;;;;2.77;2.50;;;14.80;99.90;;;;;;5129854;27;20545;-48
2021/08/28 04:38:16;;;;;;;2.30;2.20;;;14.80;99.90;;;;;;5112274;27;20200;-48
2021/08/28 04:40:43;;;;;;;2.83;2.60;;;14.80;99.90;;;;;;5133878;27;20596;-45
2021/08/28 04:43:10;;;;;;;4.37;2.90;;;14.80;99.90;;;;;;5130170;27;20269;-45
2021/08/28 04:45:56;;;;;;;3.43;2.90;;;14.80;99.90;;;;;;5122006;27;20204;-47
2021/08/28 04:48:43;;;;;;;3.57;3.00;;;14.80;99.90;;;;;;5121897;27;20212;-47
2021/08/28 04:51:28;;;;;;;3.47;3.20;;;14.70;99.90;;;;;;5121590;27;20618;-49
2021/08/28 04:53:55;;;;;;;5.50;3.30;;;14.80;99.90;;;;;;5117166;27;20292;-46
2021/08/28 04:56:21;;;;;;;3.63;3.33;;;14.80;99.90;;;;;;5127790;27;20227;-47
2021/08/28 04:58:48;;;;;;;4.57;3.00;;;14.80;99.90;;;;;;5143743;27;20194;-47
2021/08/28 05:01:55;;;;;;;4.90;3.83;;;14.80;99.90;;;;;;5097956;28;20232;-45
2021/08/28 05:04:30;;;;;;;9.30;4.73;;;14.80;99.90;;;;;;5076568;28;20236;-46
2021/08/28 05:06:57;;;;;;;8.90;5.17;;;14.80;99.90;;;;;;5103452;27;20193;-46
2021/08/28 05:09:29;;;;;;;6.43;5.30;;;14.80;99.90;;;;;;5117842;27;20347;-48
2021/08/28 05:11:56;;;;;;;7.60;5.63;;;14.80;99.90;;;;;;5122019;27;20239;-47
2021/08/28 05:14:24;;;;;;;6.37;5.77;;;14.80;99.90;;;;;;5121791;27;20189;-51
2021/08/28 05:16:55;;;;;;;8.50;6.50;;;14.80;99.90;;;;;;5100789;27;20217;-47
2021/08/28 05:19:43;;;;;;;8.67;6.97;;;14.80;99.90;;;;;;5122212;27;20708;-45
2021/08/28 05:22:35;;;;;;;7.47;6.73;;;14.80;99.90;;;;;;5104958;27;20369;-46
2021/08/28 05:25:27;;;;;;;9.70;7.60;;;14.80;99.90;;;;;;5122109;27;20200;-47
2021/08/28 05:27:55;;;;;;;12.17;7.70;;;14.80;99.90;;;;;;5143490;27;20192;-46
2021/08/28 05:30:22;;;;;;;8.17;7.27;;;14.80;99.90;;;;;;5134663;27;20216;-50
2021/08/28 05:32:50;;;;;;;10.37;8.83;;;14.80;99.90;;;;;;5114189;27;20216;-47
2021/08/28 05:35:17;;;;;;;11.77;9.30;;;14.80;99.90;;;;;;5123192;27;20283;-48
2021/08/28 05:38:07;;;;;;;13.13;8.67;;;14.80;99.90;;;;;;5122471;27;20544;-46
2021/08/28 05:40:36;;;;;;;12.97;9.67;;;14.80;99.90;;;;;;5099716;27;20197;-45
2021/08/28 05:43:03;;;;;;;10.63;9.17;;;14.90;99.90;;;;;;5121478;27;20224;-46
2021/08/28 05:45:49;;;;;;;13.20;9.17;;;14.90;99.90;;;;;;5121562;27;20241;-49
2021/08/28 05:48:17;;;;;;;14.80;10.30;;;14.90;99.90;;;;;;5106291;27;20694;-50
2021/08/28 05:50:44;;;;;;;11.83;9.67;;;14.90;99.90;;;;;;5125536;27;20308;-46
2021/08/28 05:53:11;;;;;;;10.90;9.50;;;14.90;99.90;;;;;;5111326;27;20221;-45
2021/08/28 05:55:37;;;;;;;13.63;9.90;;;14.90;99.90;;;;;;5110598;27;20272;-46
2021/08/28 05:58:04;;;;;;;12.37;10.03;;;14.90;99.90;;;;;;5114691;27;20197;-49
2021/08/28 06:00:32;;;;;;;12.90;9.77;;;15.00;99.90;;;;;;5111935;27;20185;-48
2021/08/28 06:03:05;;;;;;;11.87;9.07;;;15.00;99.90;;;;;;5105531;27;20217;-49
2021/08/28 06:05:34;;;;;;;12.37;8.70;;;15.00;99.90;;;;;;5112669;27;20261;-47
2021/08/28 06:08:19;;;;;;;11.80;9.10;;;15.00;99.90;;;;;;5105253;27;20204;-50
2021/08/28 06:11:23;;;;;;;10.87;9.20;;;15.10;99.90;;;;;;5105228;27;20220;-50
2021/08/28 06:14:05;;;;;;;16.03;8.93;;;15.10;99.90;;;;;;5116137;27;20281;-47
2021/08/28 06:16:41;;;;;;;12.00;8.50;;;15.10;99.90;;;;;;5103273;27;20219;-47
2021/08/28 06:19:16;;;;;;;10.70;8.87;;;15.10;99.90;;;;;;5115439;27;20278;-45
2021/08/28 06:21:45;;;;;;;9.30;8.40;;;15.10;99.90;;;;;;5112755;27;20224;-48
2021/08/28 06:24:11;;;;;;;12.27;10.00;;;15.10;99.90;;;;;;5109198;27;20196;-45
2021/08/28 06:26:50;;;;;;;9.67;8.27;;;15.20;99.90;;;;;;5107437;27;20208;-49
2021/08/28 06:29:16;;;;;;;12.27;8.60;;;15.20;99.90;;;;;;5113185;27;20948;-46
2021/08/28 06:31:48;;;;;;;11.50;7.77;;;15.20;99.90;;;;;;5108477;27;20597;-50
2021/08/28 06:34:14;;;;;;;10.60;8.23;;;15.20;99.90;;;;;;5105366;27;20212;-50
2021/08/28 06:36:41;;;;;;;9.80;8.77;;;15.30;99.90;;;;;;5107882;27;20197;-50
2021/08/28 06:39:27;;;;;;;9.40;7.60;;;15.30;99.90;;;;;;5108892;27;20565;-48
2021/08/28 06:42:13;;;;;;;9.20;7.93;;;15.30;99.90;;;;;;5095471;27;20267;-47
2021/08/28 06:44:58;;;;;;;9.03;7.73;;;15.40;99.90;;;;;;5121209;27;20296;-45
2021/08/28 06:47:43;;;;;;;10.53;7.30;;;15.40;99.90;;;;;;5115003;27;20210;-45
2021/08/28 06:50:33;;;;;;;8.60;7.47;;;15.40;99.90;;;;;;5112614;27;20224;-47
2021/08/28 06:53:18;;;;;;;8.57;6.73;;;15.50;99.90;;;;;;5117299;28;20216;-47
2021/08/28 06:56:05;;;;;;;7.73;6.70;;;15.50;99.90;;;;;;5097330;27;20216;-48
2021/08/28 06:59:10;;;;;;;7.73;6.50;;;15.50;99.90;;;;;;5103571;27;20196;-47
2021/08/28 07:01:41;;;;;;;8.30;6.00;;;15.50;99.90;;;;;;5113801;27;20216;-48
2021/08/28 07:04:26;;;;;;;7.80;7.00;;;15.50;99.90;;;;;;5119488;27;20787;-50
2021/08/28 07:07:06;;;;;;;8.93;6.40;;;15.50;99.90;;;;;;5118514;28;20200;-49
2021/08/28 07:09:33;;;;;;;7.97;6.60;;;15.50;99.90;;;;;;5114993;27;20205;-48
2021/08/28 07:12:02;;;;;;;9.23;5.70;;;15.50;99.90;;;;;;5119400;28;20383;-47
2021/08/28 07:14:29;;;;;;;10.10;5.93;;;15.50;99.90;;;;;;5118390;27;20208;-48
2021/08/28 07:16:56;;;;;;;6.13;5.53;;;15.50;99.90;;;;;;5105618;27;20208;-49
2021/08/28 07:19:22;;;;;;;7.07;5.70;;;15.50;99.90;;;;;;5100956;27;20222;-48
2021/08/28 07:21:49;;;;;;;6.40;5.73;;;15.50;99.90;;;;;;5120259;27;20223;-48
2021/08/28 07:24:16;;;;;;;7.10;5.57;;;15.50;99.90;;;;;;5119079;27;20200;-48
2021/08/28 07:26:47;;;;;;;6.27;5.10;;;15.60;99.90;;;;;;5133260;27;20196;-48
2021/08/28 07:29:33;;;;;;;9.10;5.90;;;15.60;99.90;;;;;;5127244;27;20212;-48
2021/08/28 07:32:00;;;;;;;5.50;4.97;;;15.60;99.90;;;;;;5098447;28;20286;-48
2021/08/28 07:34:27;;;;;;;6.93;5.17;;;15.70;99.90;;;;;;5104931;27;20253;-52
2021/08/28 07:36:55;;;;;;;9.70;4.73;;;15.70;99.90;;;;;;5121533;27;20280;-48
2021/08/28 07:39:22;;;;;;;4.70;4.30;;;15.70;99.90;;;;;;5115781;27;20232;-51
2021/08/28 07:41:49;;;;;;;4.97;4.57;;;15.70;99.90;;;;;;5121166;27;20212;-48
2021/08/28 07:44:15;;;;;;;7.70;4.53;;;15.80;99.90;;;;;;5125139;27;20195;-50
2021/08/28 07:46:45;;;;;;;7.43;4.73;;;15.80;99.90;;;;;;5106131;27;20276;-48
2021/08/28 07:49:19;;;;;;;4.80;4.07;;;15.80;99.90;;;;;;5103538;27;20219;-50
2021/08/28 07:51:46;;;;;;;5.27;4.17;;;15.80;99.90;;;;;;5121355;27;20208;-52
2021/08/28 07:54:13;;;;;;;5.47;3.83;;;15.80;99.90;;;;;;5107494;27;20219;-49
2021/08/28 07:56:40;;;;;;;4.50;3.80;;;15.90;99.90;;;;;;5109548;28;20254;-49
2021/08/28 07:59:07;;;;;;;5.03;4.37;;;15.90;99.90;;;;;;5101796;27;20816;-53
2021/08/28 08:01:34;;;;;;;4.97;3.67;;;15.90;99.90;;;;;;5105861;27;20217;-48
2021/08/28 08:04:02;;;;;;;4.53;3.57;;;15.90;99.90;;;;;;5100702;27;20214;-51
2021/08/28 08:06:47;;;;;;;4.23;3.80;;;15.90;99.90;;;;;;5119273;27;20261;-48
2021/08/28 08:09:32;;;;;;;4.43;3.57;;;15.90;99.90;;;;;;5112182;27;20208;-48
2021/08/28 08:12:21;;;;;;;5.10;3.90;;;16.00;99.90;;;;;;5115829;27;20222;-46
2021/08/28 08:15:08;;;;;;;5.77;3.37;;;16.00;99.90;;;;;;5107489;27;20216;-48
2021/08/28 08:17:54;;;;;;;3.63;3.33;;;16.00;99.90;;;;;;5112287;27;20204;-48
2021/08/28 08:20:41;;;;;;;3.83;3.27;;;16.00;99.90;;;;;;5115461;27;20563;-49
2021/08/28 08:23:34;;;;;;;3.73;3.00;;;15.90;99.90;;;;;;5125169;27;20205;-47
2021/08/28 08:26:04;;;;;;;3.47;3.17;;;15.90;99.90;;;;;;5124316;27;20929;-48
2021/08/28 08:28:49;;;;;;;2.80;2.60;;;15.90;99.90;;;;;;5109298;27;20281;-46
2021/08/28 08:31:29;;;;;;;3.17;2.93;;;15.90;99.90;;;;;;5107199;27;20224;-47
2021/08/28 08:34:00;;;;;;;3.07;2.87;;;15.90;99.90;;;;;;5123862;27;20249;-46
2021/08/28 08:36:30;;;;;;;3.27;2.97;;;15.90;99.90;;;;;;5114681;27;20200;-46
2021/08/28 08:38:56;;;;;;;3.03;2.50;;;15.90;99.90;;;;;;5114608;27;20192;-46
2021/08/28 08:41:25;;;;;;;3.53;2.80;;;15.90;99.90;;;;;;5107418;27;20246;-48
2021/08/28 08:43:55;;;;;;;3.47;2.37;;;15.90;99.90;;;;;;5123115;27;20192;-47
2021/08/28 08:46:22;;;;;;;2.87;2.30;;;16.00;99.90;;;;;;5110239;27;20265;-47
2021/08/28 08:48:51;;;;;;;2.23;1.80;;;16.00;99.90;;;;;;5108437;27;20197;-49
2021/08/28 08:51:20;;;;;;;2.40;2.20;;;16.10;99.90;;;;;;5105544;27;20221;-47
2021/08/28 08:53:49;;;;;;;2.03;1.93;;;16.20;99.90;;;;;;5104623;27;20677;-48
2021/08/28 08:56:20;;;;;;;4.17;2.13;;;16.30;99.90;;;;;;5118521;27;20293;-47
2021/08/28 08:58:49;;;;;;;1.70;1.60;;;16.30;99.90;;;;;;5118328;27;20879;-45
2021/08/28 09:01:15;;;;;;;2.00;1.90;;;16.40;99.90;;;;;;5106637;27;20204;-51
2021/08/28 09:03:45;;;;;;;2.53;1.87;;;16.30;99.90;;;;;;5114127;27;20746;-46
2021/08/28 09:06:13;;;;;;;1.67;1.57;;;16.40;99.90;;;;;;5114063;27;20198;-47
2021/08/28 09:08:43;;;;;;;1.87;1.70;;;16.50;99.90;;;;;;5116305;27;20200;-47
2021/08/28 09:11:25;;;;;;;1.27;1.17;;;16.60;99.90;;;;;;5121356;27;20227;-50
2021/08/28 09:13:52;;;;;;;1.80;1.40;;;16.70;99.90;;;;;;5111840;27;20300;-50
2021/08/28 09:16:30;;;;;;;1.40;1.30;;;16.70;99.90;;;;;;5125430;27;20741;-46
2021/08/28 09:18:57;;;;;;;2.70;1.53;;;16.70;99.90;;;;;;5105254;27;20197;-46
2021/08/28 09:21:31;;;;;;;1.43;1.27;;;16.80;99.90;;;;;;5097390;27;20212;-50
2021/08/28 09:24:00;;;;;;;1.03;1.03;;;16.70;99.90;;;;;;5112650;27;20689;-47
2021/08/28 09:26:30;;;;;;;3.13;1.10;;;16.60;99.90;;;;;;5124357;27;20208;-45
2021/08/28 09:28:58;;;;;;;1.20;1.10;;;16.60;99.90;;;;;;5114293;27;20213;-50
2021/08/28 09:31:45;;;;;;;1.23;1.13;;;16.60;99.90;;;;;;5120265;27;20224;-47
2021/08/28 09:34:17;;;;;;;1.60;1.50;;;16.60;99.90;;;;;;5123221;27;20689;-48
2021/08/28 09:36:44;;;;;;;2.07;1.30;;;16.50;99.90;;;;;;5110407;27;20207;-48
2021/08/28 09:39:11;;;;;;;1.60;1.50;;;16.60;99.90;;;;;;5126097;27;20189;-51
2021/08/28 09:41:39;;;;;;;1.80;1.70;;;16.60;99.90;;;;;;5107055;27;20215;-45
2021/08/28 09:44:06;;;;;;;2.07;1.67;;;16.60;99.90;;;;;;5108135;27;20204;-48
2021/08/28 09:46:33;;;;;;;1.97;1.43;;;16.50;99.90;;;;;;5109655;27;20196;-47
2021/08/28 09:49:01;;;;;;;2.23;1.57;;;16.50;99.90;;;;;;5098310;27;20205;-49
2021/08/28 09:51:33;;;;;;;2.40;1.57;;;16.60;99.90;;;;;;5114455;27;20311;-48
2021/08/28 09:54:00;;;;;;;1.60;1.50;;;16.50;99.90;;;;;;5113725;27;20193;-45
2021/08/28 09:56:27;;;;;;;4.00;1.50;;;16.50;99.90;;;;;;5104971;27;20205;-47
2021/08/28 09:58:55;;;;;;;1.47;1.37;;;16.40;99.90;;;;;;5113974;27;20281;-47
2021/08/28 10:01:23;;;;;;;2.47;1.70;;;16.50;99.90;;;;;;5122287;27;20177;-50
2021/08/28 10:03:58;;;;;;;2.67;1.60;;;16.50;99.90;;;;;;5120294;27;20650;-51
2021/08/28 10:06:25;;;;;;;1.90;1.80;;;16.60;99.90;;;;;;5114046;27;20197;-48
2021/08/28 10:08:52;;;;;;;2.70;1.73;;;16.60;99.90;;;;;;5118334;27;20577;-47
2021/08/28 10:11:19;;;;;;;3.03;1.83;;;16.60;99.90;;;;;;5104535;27;21791;-47
2021/08/28 10:13:47;;;;;;;1.97;1.87;;;16.70;99.90;;;;;;5115080;27;20199;-48
2021/08/28 10:16:16;;;;;;;1.70;1.60;;;16.80;99.90;;;;;;5114235;27;20274;-47
2021/08/28 10:18:45;;;;;;;2.07;1.97;;;16.80;99.90;;;;;;5115264;27;20207;-50
2021/08/28 10:21:13;;;;;;;2.67;1.90;;;16.80;99.90;;;;;;5109206;27;20196;-48
2021/08/28 10:23:42;;;;;;;2.63;1.87;;;16.80;99.90;;;;;;5123914;27;20189;-52
2021/08/28 10:26:11;;;;;;;1.83;1.73;;;16.80;99.90;;;;;;5119909;27;20192;-46
2021/08/28 10:28:40;;;;;;;1.70;1.60;;;16.80;99.90;;;;;;5111576;27;20209;-46
2021/08/28 10:31:10;;;;;;;2.37;1.60;;;16.70;99.90;;;;;;5115506;27;20215;-49
2021/08/28 10:33:39;;;;;;;2.73;1.40;;;16.70;99.90;;;;;;5106838;27;20190;-49
2021/08/28 10:36:08;;;;;;;2.40;1.87;;;16.70;99.90;;;;;;5099666;27;20197;-50
2021/08/28 10:38:35;;;;;;;4.20;1.70;;;16.70;99.90;;;;;;5110157;27;20204;-48
2021/08/28 10:41:02;;;;;;;1.50;1.40;;;16.70;99.90;;;;;;5108161;27;20193;-50
2021/08/28 10:43:29;;;;;;;1.97;1.70;;;16.70;99.90;;;;;;5102449;27;20225;-48
2021/08/28 10:45:56;;;;;;;1.60;1.50;;;16.70;99.90;;;;;;5120176;27;20657;-52
2021/08/28 10:48:51;;;;;;;3.17;1.90;;;16.70;99.90;;;;;;5126032;27;20209;-49
2021/08/28 10:51:23;;;;;;;1.40;1.30;;;16.80;99.90;;;;;;5128260;27;21192;-45
2021/08/28 10:53:53;;;;;;;1.40;1.30;;;16.90;99.90;;;;;;5102206;27;20682;-48
2021/08/28 10:56:20;;;;;;;2.20;1.33;;;16.80;99.90;;;;;;5134390;27;20196;-49
2021/08/28 10:58:46;;;;;;;1.37;1.13;;;16.90;99.90;;;;;;5102526;27;20228;-49
2021/08/28 11:01:19;;;;;;;4.67;1.63;;;16.80;99.90;;;;;;5118138;27;20195;-50
2021/08/28 11:03:45;;;;;;;1.10;1.00;;;16.80;99.90;;;;;;5119403;28;20242;-51
2021/08/28 11:06:25;;;;;;;1.00;1.00;;;16.70;99.90;;;;;;5109204;27;20196;-48
2021/08/28 11:08:53;;;;;;;1.67;1.37;;;16.70;99.90;;;;;;5101806;27;20212;-48
2021/08/28 11:11:23;;;;;;;1.40;1.30;;;16.60;99.90;;;;;;5123021;27;20551;-48
2021/08/28 11:14:01;;;;;;;1.30;1.20;;;16.60;99.90;;;;;;5096927;27;20641;-50
2021/08/28 11:16:53;;;;;;;1.60;0.90;;;16.60;99.90;;;;;;5110967;27;20681;-48
2021/08/28 11:19:37;;;;;;;0.70;0.70;;;16.60;99.90;;;;;;5114922;28;20200;-46
2021/08/28 11:22:07;;;;;;;2.23;1.00;;;16.60;99.90;;;;;;5100858;27;20227;-46
2021/08/28 11:24:34;;;;;;;2.53;1.00;;;16.60;99.90;;;;;;5110465;27;20201;-46
2021/08/28 11:27:05;;;;;;;1.93;0.97;;;16.60;99.90;;;;;;5107307;27;21059;-46
2021/08/28 11:29:34;;;;;;;1.23;0.90;;;16.60;99.90;;;;;;5110449;27;20194;-46
2021/08/28 11:32:12;;;;;;;1.60;0.90;;;16.60;99.90;;;;;;5097541;27;20301;-47
2021/08/28 11:34:41;;;;;;;1.60;0.90;;;16.70;99.90;;;;;;5115519;28;20684;-49
2021/08/28 11:37:43;;;;;;;0.80;0.80;;;16.70;99.90;;;;;;5116282;27;20196;-46
2021/08/28 11:40:30;;;;;;;0.90;0.80;;;16.70;99.90;;;;;;5099772;27;20285;-48
2021/08/28 11:42:57;;;;;;;1.40;0.87;;;16.70;99.90;;;;;;5091503;27;20220;-51
2021/08/28 11:45:34;;;;;;;2.27;0.70;;;16.80;99.90;;;;;;5109064;27;20206;-50
2021/08/28 11:48:05;;;;;;;0.90;0.70;;;16.80;99.90;;;;;;5118100;27;20188;-46
2021/08/28 11:50:33;;;;;;;1.53;0.70;;;16.80;99.90;;;;;;5113499;27;20262;-46
2021/08/28 11:53:01;;;;;;;0.50;0.50;;;16.80;99.90;;;;;;5103242;27;20321;-52
2021/08/28 11:55:29;;;;;;;2.10;0.50;;;16.90;99.90;;;;;;5112218;27;20197;-48
2021/08/28 11:58:04;;;;;;;1.33;0.70;;;16.80;99.90;;;;;;5091556;27;20208;-51
2021/08/28 12:00:32;;;;;;;1.10;0.40;;;16.80;99.90;;;;;;5119377;27;20192;-45
2021/08/28 12:02:59;;;;;;;0.30;0.30;;;16.90;99.90;;;;;;5114035;27;20962;-46
2021/08/28 12:05:26;;;;;;;0.37;0.37;;;16.90;99.90;;;;;;5118800;27;20669;-46
2021/08/28 12:07:54;;;;;;;0.50;0.40;;;16.80;99.90;;;;;;5107197;27;20186;-49
2021/08/28 12:10:22;;;;;;;1.37;0.30;;;16.80;99.90;;;;;;5105999;27;20283;-47
2021/08/28 12:12:57;;;;;;;0.47;0.47;;;16.80;99.90;;;;;;5111309;27;20269;-49
2021/08/28 12:15:24;;;;;;;0.53;0.50;;;16.80;99.90;;;;;;5106136;27;20203;-46
2021/08/28 12:17:51;;;;;;;1.53;0.43;;;16.70;99.90;;;;;;5109640;27;20193;-48
2021/08/28 12:20:23;;;;;;;0.50;0.50;;;16.70;99.90;;;;;;5108509;27;20247;-45
2021/08/28 12:22:51;;;;;;;0.40;0.40;;;16.80;99.90;;;;;;5120702;27;20649;-48
2021/08/28 12:25:17;;;;;;;0.60;0.50;;;16.90;99.90;;;;;;5111650;27;20253;-45
2021/08/28 12:27:45;;;;;;;0.90;0.60;;;16.90;99.90;;;;;;5112088;27;20674;-48
2021/08/28 12:30:13;;;;;;;1.43;0.60;;;16.90;99.90;;;;;;5102295;27;20261;-45
2021/08/28 12:32:39;;;;;;;0.70;0.70;;;17.00;99.90;;;;;;5121505;27;21554;-48
2021/08/28 12:35:07;;;;;;;0.57;0.53;;;17.00;99.90;;;;;;5129477;27;20189;-46
2021/08/28 12:37:34;;;;;;;1.10;0.50;;;17.10;99.90;;;;;;5126804;27;20552;-46
2021/08/28 12:40:03;;;;;;;2.87;0.60;;;17.10;99.90;;;;;;5104261;27;20811;-48
2021/08/28 12:42:32;;;;;;;1.07;0.60;;;17.10;99.90;;;;;;5109809;27;20700;-54
2021/08/28 12:45:02;;;;;;;0.50;0.43;;;17.10;99.90;;;;;;5111476;27;20204;-47
2021/08/28 12:47:31;;;;;;;0.70;0.70;;;17.20;99.90;;;;;;5096933;27;20209;-52
2021/08/28 12:49:58;;;;;;;0.50;0.50;;;17.20;99.90;;;;;;5119365;27;20200;-50
2021/08/28 12:52:36;;;;;;;1.23;0.70;;;17.10;99.90;;;;;;5115604;27;20591;-45
2021/08/28 12:55:02;;;;;;;0.50;0.50;;;17.10;99.90;;;;;;5110076;27;20204;-46
2021/08/28 12:57:31;;;;;;;0.47;0.47;;;17.00;99.90;;;;;;5106880;27;20596;-51
2021/08/28 13:00:00;;;;;;;1.27;0.80;;;17.00;99.90;;;;;;5107282;27;20208;-51
2021/08/28 13:02:29;;;;;;;0.57;0.50;;;17.00;99.90;;;;;;5103516;27;20225;-46
2021/08/28 13:04:57;;;;;;;1.03;0.60;;;17.00;99.90;;;;;;5118374;27;20213;-46
2021/08/28 13:07:35;;;;;;;1.87;0.50;;;16.90;99.90;;;;;;5119437;27;20219;-46
2021/08/28 13:10:09;;;;;;;0.93;0.50;;;16.80;99.90;;;;;;5125017;27;20621;-54